Time;durP1;ratioP1;P1;durP2;ratioP2;P2;SDS_P1;SDS_P2;PMS_P1;PMS_P2;Temp;Humidity;BMP_temperature;BMP_pressure;BME280_temperature;BME280_humidity;BME280_pressure;Samples;Min_cycle;Max_cycle;Signal;HPM_P1;HPM_P2
2020/12/21 00:01:55;;;;;;;17.33;12.10;;;7.80;99.90;;;;;;5015837;28;20450;-82
2020/12/21 00:04:21;;;;;;;16.83;11.87;;;7.80;99.90;;;;;;5014469;28;20469;-81
2020/12/21 00:06:52;;;;;;;16.75;11.85;;;7.80;99.90;;;;;;5014962;28;20879;-82
2020/12/21 00:09:19;;;;;;;19.27;12.00;;;7.80;99.90;;;;;;5015848;28;20203;-82
2020/12/21 00:11:46;;;;;;;17.00;11.33;;;7.80;99.90;;;;;;5015823;28;20472;-82
2020/12/21 00:14:13;;;;;;;16.70;12.33;;;7.70;99.90;;;;;;5015579;28;20490;-83
2020/12/21 00:16:41;;;;;;;14.33;12.30;;;7.70;99.90;;;;;;5015649;28;20482;-82
2020/12/21 00:19:09;;;;;;;15.97;12.67;;;7.70;99.90;;;;;;5015765;28;20489;-83
2020/12/21 00:21:36;;;;;;;16.85;12.20;;;7.70;99.90;;;;;;5014099;28;20484;-82
2020/12/21 00:24:03;;;;;;;14.73;11.55;;;7.70;99.90;;;;;;5015595;28;20200;-84
2020/12/21 00:26:29;;;;;;;16.87;11.60;;;7.70;99.90;;;;;;5015570;28;20207;-82
2020/12/21 00:28:57;;;;;;;17.77;11.83;;;7.60;99.90;;;;;;5015429;28;20878;-82
2020/12/21 00:31:25;;;;;;;16.47;12.60;;;7.70;99.90;;;;;;5015301;28;20450;-82
2020/12/21 00:33:51;;;;;;;13.90;11.00;;;7.80;99.90;;;;;;5015175;28;20487;-82
2020/12/21 00:36:18;;;;;;;12.83;10.63;;;7.70;99.90;;;;;;5012807;28;20581;-82
2020/12/21 00:38:45;;;;;;;13.33;11.70;;;7.70;99.90;;;;;;5015285;28;20451;-81
2020/12/21 00:41:17;;;;;;;14.35;10.98;;;7.70;99.90;;;;;;5015157;28;20548;-82
2020/12/21 00:43:45;;;;;;;15.30;11.45;;;7.70;99.90;;;;;;5015164;28;20210;-81
2020/12/21 00:46:14;;;;;;;15.90;10.50;;;7.70;99.90;;;;;;5015106;28;20619;-82
2020/12/21 00:48:41;;;;;;;14.33;10.90;;;7.70;99.90;;;;;;5015011;28;20459;-82
2020/12/21 00:51:07;;;;;;;23.00;11.77;;;7.70;99.90;;;;;;5012987;28;20950;-81
2020/12/21 00:53:34;;;;;;;13.07;9.93;;;7.80;99.90;;;;;;5014494;28;20549;-82
2020/12/21 00:56:02;;;;;;;11.13;9.15;;;7.70;99.90;;;;;;5014642;28;20580;-81
2020/12/21 00:58:29;;;;;;;13.90;11.53;;;7.80;99.90;;;;;;5014836;28;20214;-81
2020/12/21 01:00:55;;;;;;;13.90;10.98;;;7.80;99.90;;;;;;5014771;28;20454;-81
2020/12/21 01:03:22;;;;;;;14.90;11.97;;;7.80;99.90;;;;;;5014801;28;20310;-81
2020/12/21 01:05:49;;;;;;;13.97;11.17;;;7.70;99.90;;;;;;5012577;28;20462;-81
2020/12/21 01:08:15;;;;;;;13.13;10.67;;;7.60;99.90;;;;;;5014768;28;20486;-81
2020/12/21 01:10:42;;;;;;;14.20;10.20;;;7.60;99.90;;;;;;5014586;28;20534;-82
2020/12/21 01:13:08;;;;;;;13.20;10.70;;;7.50;99.90;;;;;;5014675;28;20450;-82
2020/12/21 01:15:34;;;;;;;14.03;9.70;;;7.50;99.90;;;;;;5014510;28;20589;-81
2020/12/21 01:18:01;;;;;;;14.73;10.73;;;7.50;99.90;;;;;;5014518;28;20483;-81
2020/12/21 01:20:28;;;;;;;17.50;12.83;;;7.50;99.90;;;;;;5013155;28;20966;-81
2020/12/21 01:22:54;;;;;;;16.00;11.88;;;7.50;99.90;;;;;;5013844;28;20538;-81
2020/12/21 01:25:21;;;;;;;17.10;12.40;;;7.50;99.90;;;;;;5014306;28;20217;-81
2020/12/21 01:27:47;;;;;;;13.43;11.70;;;7.60;99.90;;;;;;5014401;28;20600;-81
2020/12/21 01:30:14;;;;;;;14.93;12.27;;;7.60;99.90;;;;;;5014250;28;20453;-81
2020/12/21 01:32:40;;;;;;;15.57;11.17;;;7.60;99.90;;;;;;5014213;28;20234;-81
2020/12/21 01:35:07;;;;;;;17.07;13.63;;;7.60;99.90;;;;;;5013038;28;20864;-82
2020/12/21 01:37:34;;;;;;;19.60;12.07;;;7.60;99.90;;;;;;5013220;28;20942;-81
2020/12/21 01:40:01;;;;;;;16.40;11.88;;;7.60;99.90;;;;;;5014150;28;20265;-82
2020/12/21 01:42:28;;;;;;;19.53;13.90;;;7.60;99.90;;;;;;5014069;28;20261;-81
2020/12/21 01:44:54;;;;;;;17.75;13.70;;;7.60;99.90;;;;;;5014003;28;20548;-81
2020/12/21 01:47:21;;;;;;;20.35;12.82;;;7.60;99.90;;;;;;5014041;28;20234;-82
2020/12/21 01:49:49;;;;;;;17.83;12.30;;;7.50;99.90;;;;;;5012027;28;20246;-81
2020/12/21 01:52:17;;;;;;;16.30;12.80;;;7.50;99.90;;;;;;5013525;28;20262;-81
2020/12/21 01:54:46;;;;;;;19.88;12.68;;;7.50;99.90;;;;;;5013694;28;20319;-82
2020/12/21 01:57:13;;;;;;;15.23;12.10;;;7.40;99.90;;;;;;5013835;28;20262;-81
2020/12/21 01:59:39;;;;;;;14.43;11.43;;;7.40;99.90;;;;;;5013858;28;20249;-81
2020/12/21 02:02:06;;;;;;;15.63;12.03;;;7.40;99.90;;;;;;5013814;28;20269;-81
2020/12/21 02:04:33;;;;;;;14.60;11.25;;;7.40;99.90;;;;;;5010894;28;20557;-81
2020/12/21 02:07:01;;;;;;;15.43;11.70;;;7.40;99.90;;;;;;5013457;28;20210;-82
2020/12/21 02:09:28;;;;;;;11.90;10.23;;;7.50;99.90;;;;;;5013687;28;20450;-81
2020/12/21 02:11:56;;;;;;;10.38;8.85;;;7.50;99.90;;;;;;5013679;28;20203;-81
2020/12/21 02:14:22;;;;;;;10.38;8.45;;;7.60;99.90;;;;;;5013395;28;20286;-80
2020/12/21 02:16:49;;;;;;;10.00;8.50;;;7.60;99.90;;;;;;5013554;28;20234;-80
2020/12/21 02:19:15;;;;;;;11.87;8.73;;;7.60;99.90;;;;;;5008758;28;20223;-80
2020/12/21 02:21:45;;;;;;;11.55;7.18;;;7.50;99.90;;;;;;5012914;28;20458;-80
2020/12/21 02:24:12;;;;;;;10.88;8.45;;;7.50;99.90;;;;;;5013351;28;20211;-81
2020/12/21 02:26:38;;;;;;;9.43;7.35;;;7.40;99.90;;;;;;5013162;28;20207;-81
2020/12/21 02:29:05;;;;;;;12.57;8.10;;;7.20;99.90;;;;;;5012974;28;20634;-80
2020/12/21 02:31:31;;;;;;;9.50;8.20;;;7.10;99.90;;;;;;5013223;28;20282;-81
2020/12/21 02:33:58;;;;;;;9.52;8.23;;;7.10;99.90;;;;;;5012729;28;20259;-80
2020/12/21 02:36:24;;;;;;;9.80;7.57;;;7.00;99.90;;;;;;5011079;28;20322;-81
2020/12/21 02:38:52;;;;;;;12.95;8.50;;;6.90;99.90;;;;;;5013266;28;20237;-80
2020/12/21 02:41:20;;;;;;;10.00;6.95;;;6.80;99.90;;;;;;5013290;28;20564;-80
2020/12/21 02:43:46;;;;;;;10.77;8.20;;;6.80;99.90;;;;;;5013124;28;20294;-80
2020/12/21 02:46:16;;;;;;;8.55;7.65;;;6.70;99.90;;;;;;5013193;28;20326;-80
2020/12/21 02:48:43;;;;;;;11.77;7.85;;;6.70;99.90;;;;;;5013044;28;20208;-80
2020/12/21 02:51:14;;;;;;;11.43;8.65;;;6.70;99.90;;;;;;5010787;28;20196;-81
2020/12/21 02:53:40;;;;;;;14.32;8.48;;;6.60;99.90;;;;;;5013119;28;20207;-80
2020/12/21 02:56:07;;;;;;;11.70;8.35;;;6.40;99.90;;;;;;5012916;28;20697;-81
2020/12/21 02:58:34;;;;;;;13.73;9.35;;;6.40;99.90;;;;;;5013000;28;20204;-81
2020/12/21 03:01:00;;;;;;;12.93;10.23;;;6.20;99.90;;;;;;5012903;28;20203;-80
2020/12/21 03:03:27;;;;;;;13.50;9.90;;;6.20;99.90;;;;;;5012966;28;20203;-81
2020/12/21 03:05:53;;;;;;;16.85;11.15;;;6.10;99.90;;;;;;5010760;28;20231;-81
2020/12/21 03:08:19;;;;;;;11.90;10.48;;;6.10;99.90;;;;;;5012598;28;20256;-81
2020/12/21 03:10:46;;;;;;;17.08;11.00;;;6.10;99.90;;;;;;5012843;28;20684;-81
2020/12/21 03:13:13;;;;;;;18.42;12.25;;;6.00;99.90;;;;;;5012948;28;20203;-81
2020/12/21 03:15:39;;;;;;;13.30;10.55;;;6.00;99.90;;;;;;5013889;28;20242;-80
2020/12/21 03:18:06;;;;;;;14.82;11.02;;;6.00;99.90;;;;;;5016819;28;20618;-80
2020/12/21 03:20:32;;;;;;;14.93;12.05;;;5.90;99.90;;;;;;5015556;28;20231;-80
2020/12/21 03:22:59;;;;;;;17.35;11.30;;;5.90;99.90;;;;;;5016459;28;20667;-80
2020/12/21 03:25:25;;;;;;;15.45;11.18;;;5.80;99.90;;;;;;5016649;28;20207;-80
2020/12/21 03:27:51;;;;;;;13.90;11.93;;;5.80;99.90;;;;;;5016662;28;20659;-80
2020/12/21 03:30:19;;;;;;;15.68;11.00;;;5.80;99.90;;;;;;5016482;28;20270;-80
2020/12/21 03:32:45;;;;;;;14.05;10.00;;;5.70;99.90;;;;;;5016386;28;20258;-80
2020/12/21 03:35:11;;;;;;;14.80;10.88;;;5.60;99.90;;;;;;5015209;28;20297;-80
2020/12/21 03:37:38;;;;;;;11.63;9.68;;;5.50;99.90;;;;;;5015329;28;20294;-80
2020/12/21 03:40:06;;;;;;;15.23;10.93;;;5.50;99.90;;;;;;5016351;28;20203;-80
2020/12/21 03:42:33;;;;;;;14.80;10.13;;;5.50;99.90;;;;;;5016576;28;20214;-80
2020/12/21 03:44:59;;;;;;;14.73;11.88;;;5.50;99.90;;;;;;5016192;28;20286;-80
2020/12/21 03:47:27;;;;;;;17.17;12.02;;;5.50;99.90;;;;;;5016227;28;20204;-80
2020/12/21 03:49:53;;;;;;;16.83;12.07;;;5.50;99.90;;;;;;5014918;28;20262;-80
2020/12/21 03:52:19;;;;;;;21.10;12.80;;;5.40;99.90;;;;;;5015190;28;20672;-79
2020/12/21 03:54:46;;;;;;;22.77;14.18;;;5.40;99.90;;;;;;5016003;28;20694;-80
2020/12/21 03:57:12;;;;;;;18.83;14.25;;;5.40;99.90;;;;;;5016176;28;20210;-80
2020/12/21 03:59:39;;;;;;;24.60;13.15;;;5.40;99.90;;;;;;5015904;28;20290;-79
2020/12/21 04:02:05;;;;;;;22.98;14.57;;;5.40;99.90;;;;;;5016037;28;20242;-80
2020/12/21 04:04:32;;;;;;;18.08;13.23;;;5.30;99.90;;;;;;5014766;28;20668;-80
2020/12/21 04:06:59;;;;;;;15.48;12.05;;;5.30;99.90;;;;;;5014746;28;20207;-79
2020/12/21 04:09:25;;;;;;;17.92;12.70;;;5.30;99.90;;;;;;5016029;28;20208;-80
2020/12/21 04:11:52;;;;;;;13.70;10.68;;;5.30;99.90;;;;;;5015855;28;20207;-80
2020/12/21 04:14:18;;;;;;;14.65;11.65;;;5.20;99.90;;;;;;5015550;28;20203;-80
2020/12/21 04:16:44;;;;;;;18.83;11.85;;;5.20;99.90;;;;;;5015760;28;20777;-80
2020/12/21 04:19:11;;;;;;;16.73;11.85;;;5.30;99.90;;;;;;5015768;28;20231;-81
2020/12/21 04:21:38;;;;;;;14.00;10.60;;;5.20;99.90;;;;;;5014507;28;20199;-80
2020/12/21 04:24:04;;;;;;;12.68;11.18;;;5.20;99.90;;;;;;5015387;28;20218;-81
2020/12/21 04:26:31;;;;;;;13.05;10.68;;;5.20;99.90;;;;;;5015357;28;20265;-80
2020/12/21 04:28:57;;;;;;;15.82;11.93;;;5.20;99.90;;;;;;5014781;28;20263;-80
2020/12/21 04:31:24;;;;;;;16.73;11.77;;;5.20;99.90;;;;;;5015570;28;20207;-80
2020/12/21 04:33:50;;;;;;;14.30;10.13;;;5.20;99.90;;;;;;5014343;28;20761;-80
2020/12/21 04:36:17;;;;;;;13.40;10.95;;;5.20;99.90;;;;;;5014170;28;20286;-80
2020/12/21 04:38:44;;;;;;;16.75;11.88;;;5.20;99.90;;;;;;5015331;28;20210;-80
2020/12/21 04:41:11;;;;;;;15.13;10.85;;;5.10;99.90;;;;;;5015226;28;20286;-80
2020/12/21 04:43:38;;;;;;;14.10;9.90;;;5.10;99.90;;;;;;5015198;28;20302;-80
2020/12/21 04:46:06;;;;;;;15.85;9.63;;;5.00;99.90;;;;;;5015115;28;20210;-80
2020/12/21 04:48:38;;;;;;;17.65;12.20;;;5.10;99.90;;;;;;5015086;28;20207;-80
2020/12/21 04:51:05;;;;;;;12.13;10.35;;;5.10;99.90;;;;;;5012832;28;20219;-80
2020/12/21 04:53:32;;;;;;;14.60;10.80;;;5.20;99.90;;;;;;5014785;28;20638;-80
2020/12/21 04:56:00;;;;;;;14.02;11.13;;;5.20;99.90;;;;;;5014806;28;20242;-80
2020/12/21 04:58:26;;;;;;;13.95;11.25;;;5.20;99.90;;;;;;5015078;28;20231;-80
2020/12/21 05:00:53;;;;;;;14.00;10.68;;;5.20;99.90;;;;;;5014904;28;20222;-80
2020/12/21 05:03:19;;;;;;;18.63;12.13;;;5.20;99.90;;;;;;5014823;28;20354;-80
2020/12/21 05:05:45;;;;;;;12.85;9.95;;;5.30;99.90;;;;;;5013699;28;20297;-81
2020/12/21 05:08:13;;;;;;;16.27;10.15;;;5.30;99.90;;;;;;5013798;28;20286;-80
2020/12/21 05:10:41;;;;;;;13.40;9.57;;;5.40;99.90;;;;;;5014548;28;20729;-80
2020/12/21 05:13:10;;;;;;;12.50;9.52;;;5.40;99.90;;;;;;5014746;28;20277;-80
2020/12/21 05:15:36;;;;;;;13.32;9.98;;;5.40;99.90;;;;;;5014499;28;20263;-81
2020/12/21 05:18:04;;;;;;;13.65;9.85;;;5.50;99.90;;;;;;5014546;28;20203;-81
2020/12/21 05:20:31;;;;;;;11.40;9.68;;;5.40;99.90;;;;;;5013268;28;20203;-81
2020/12/21 05:22:58;;;;;;;11.48;8.82;;;5.50;99.90;;;;;;5014109;28;20294;-80
2020/12/21 05:25:24;;;;;;;12.02;9.30;;;5.50;99.90;;;;;;5014460;28;20231;-81
2020/12/21 05:27:50;;;;;;;12.80;9.65;;;5.50;99.90;;;;;;5014286;28;20574;-80
2020/12/21 05:30:18;;;;;;;10.27;9.18;;;5.40;99.90;;;;;;5014386;28;20207;-80
2020/12/21 05:32:44;;;;;;;13.05;9.30;;;5.40;99.90;;;;;;5014167;28;20235;-80
2020/12/21 05:35:11;;;;;;;12.07;10.20;;;5.40;99.90;;;;;;5013049;28;20667;-80
2020/12/21 05:37:39;;;;;;;16.30;10.00;;;5.40;99.90;;;;;;5013199;28;20639;-80
2020/12/21 05:40:08;;;;;;;13.85;12.15;;;5.40;99.90;;;;;;5013169;28;20207;-80
2020/12/21 05:42:35;;;;;;;15.10;11.00;;;5.40;99.90;;;;;;5014264;28;20214;-81
2020/12/21 05:45:06;;;;;;;15.63;10.93;;;5.40;99.90;;;;;;5014099;28;20667;-80
2020/12/21 05:47:33;;;;;;;12.55;10.52;;;5.40;99.90;;;;;;5014084;28;20204;-80
2020/12/21 05:50:01;;;;;;;18.23;11.43;;;5.40;99.90;;;;;;5012785;28;20253;-79
2020/12/21 05:52:33;;;;;;;14.50;10.85;;;5.40;99.90;;;;;;5012862;28;20254;-80
2020/12/21 05:55:05;;;;;;;14.60;11.90;;;5.50;99.90;;;;;;5013809;28;20317;-80
2020/12/21 05:57:32;;;;;;;12.50;11.05;;;5.50;99.90;;;;;;5013866;28;20203;-80
2020/12/21 05:59:59;;;;;;;11.48;9.30;;;5.50;99.90;;;;;;5013831;28;20206;-80
2020/12/21 06:02:27;;;;;;;12.57;10.57;;;5.50;99.90;;;;;;5013876;28;20302;-80
2020/12/21 06:05:01;;;;;;;11.93;10.20;;;5.50;99.90;;;;;;5012542;28;20211;-80
2020/12/21 06:07:31;;;;;;;12.02;9.60;;;5.50;99.90;;;;;;5012826;28;20670;-80
2020/12/21 06:09:59;;;;;;;13.73;10.38;;;5.50;99.90;;;;;;5013716;28;20316;-79
2020/12/21 06:12:28;;;;;;;10.10;9.00;;;5.50;99.90;;;;;;5013585;28;20210;-79
2020/12/21 06:15:00;;;;;;;14.23;10.27;;;5.60;99.90;;;;;;5013519;28;20665;-79
2020/12/21 06:17:31;;;;;;;13.23;9.30;;;5.60;99.90;;;;;;5013366;28;20211;-81
2020/12/21 06:20:06;;;;;;;10.07;8.75;;;5.60;99.90;;;;;;5012228;28;20207;-79
2020/12/21 06:22:33;;;;;;;9.07;8.13;;;5.70;99.90;;;;;;5013192;28;20568;-80
2020/12/21 06:24:59;;;;;;;12.07;10.35;;;5.70;99.90;;;;;;5013311;28;20214;-80
2020/12/21 06:27:36;;;;;;;11.18;8.82;;;5.70;99.90;;;;;;5013283;28;20204;-79
2020/12/21 06:30:03;;;;;;;12.00;10.38;;;5.70;99.90;;;;;;5013367;28;20661;-80
2020/12/21 06:32:31;;;;;;;12.02;9.77;;;5.70;99.90;;;;;;5013207;28;20223;-80
2020/12/21 06:34:57;;;;;;;12.25;9.70;;;5.60;99.90;;;;;;5011329;28;20231;-80
2020/12/21 06:37:25;;;;;;;14.57;10.25;;;5.60;99.90;;;;;;5012903;28;20231;-81
2020/12/21 06:39:59;;;;;;;12.35;10.23;;;5.60;99.90;;;;;;5013241;28;20290;-81
2020/12/21 06:42:26;;;;;;;17.00;11.57;;;5.60;99.90;;;;;;5013138;28;20257;-79
2020/12/21 06:44:54;;;;;;;14.02;11.05;;;5.60;99.90;;;;;;5013109;28;20309;-80
2020/12/21 06:47:23;;;;;;;20.48;13.55;;;5.60;99.90;;;;;;5013116;28;20207;-80
2020/12/21 06:49:50;;;;;;;16.50;12.23;;;5.60;99.90;;;;;;5011699;28;20620;-81
2020/12/21 06:52:32;;;;;;;19.45;13.60;;;5.50;99.90;;;;;;5013302;28;20290;-83
2020/12/21 06:54:58;;;;;;;16.83;12.18;;;5.40;99.90;;;;;;5012784;28;20227;-82
2020/12/21 06:57:25;;;;;;;17.38;12.23;;;5.30;99.90;;;;;;5012904;28;20294;-79
2020/12/21 06:59:58;;;;;;;17.02;11.43;;;5.30;99.90;;;;;;5012956;28;20243;-81
2020/12/21 07:02:24;;;;;;;14.70;11.35;;;5.30;99.90;;;;;;5012303;28;20199;-80
2020/12/21 07:04:51;;;;;;;16.83;11.57;;;5.30;99.90;;;;;;5004799;23;20295;-84
2020/12/21 07:07:20;;;;;;;12.88;9.85;;;5.30;99.90;;;;;;4974726;28;20205;-80
2020/12/21 07:09:47;;;;;;;15.02;11.00;;;5.40;99.90;;;;;;4973859;28;20386;-81
2020/12/21 07:12:13;;;;;;;10.25;8.43;;;5.40;99.90;;;;;;4974038;28;20208;-83
2020/12/21 07:14:40;;;;;;;9.95;7.95;;;5.30;99.90;;;;;;4976401;28;20249;-83
2020/12/21 07:17:08;;;;;;;10.25;7.30;;;5.40;99.90;;;;;;4973882;28;20205;-83
2020/12/21 07:19:36;;;;;;;10.57;9.00;;;5.30;99.90;;;;;;4974732;28;20201;-82
2020/12/21 07:22:03;;;;;;;14.07;8.50;;;5.40;99.90;;;;;;4975793;28;20247;-83
2020/12/21 07:24:29;;;;;;;10.52;8.25;;;5.40;99.90;;;;;;4973712;28;20255;-82
2020/12/21 07:26:57;;;;;;;11.10;8.60;;;5.40;99.90;;;;;;4973747;28;20296;-83
2020/12/21 07:29:23;;;;;;;12.57;8.85;;;5.40;99.90;;;;;;4973738;28;20300;-81
2020/12/21 07:31:50;;;;;;;12.65;8.73;;;5.40;99.90;;;;;;4972959;28;20216;-82
2020/12/21 07:34:16;;;;;;;13.50;9.80;;;5.50;99.90;;;;;;4992285;28;20209;-81
2020/12/21 07:36:43;;;;;;;15.52;10.45;;;5.40;99.90;;;;;;4977303;28;20775;-81
2020/12/21 07:39:11;;;;;;;10.50;8.73;;;5.40;99.90;;;;;;4983146;28;20197;-81
2020/12/21 07:41:39;;;;;;;14.57;9.20;;;5.40;99.90;;;;;;4972199;28;20209;-82
2020/12/21 07:44:10;;;;;;;14.98;9.90;;;5.40;99.90;;;;;;4976756;28;20240;-82
2020/12/21 07:46:40;;;;;;;16.17;10.95;;;5.40;99.90;;;;;;4978243;28;20296;-82
2020/12/21 07:49:08;;;;;;;11.75;9.60;;;5.40;99.90;;;;;;4976397;28;20280;-81
2020/12/21 07:51:38;;;;;;;13.07;10.75;;;5.40;99.90;;;;;;4970723;28;20201;-82
2020/12/21 07:54:06;;;;;;;11.95;9.07;;;5.40;99.90;;;;;;4969016;28;20205;-82
2020/12/21 07:56:32;;;;;;;14.30;8.40;;;5.50;99.90;;;;;;4972107;28;20243;-84
2020/12/21 07:58:58;;;;;;;11.02;8.95;;;5.70;99.90;;;;;;4972186;28;20203;-84
2020/12/21 08:01:25;;;;;;;10.90;8.48;;;5.80;99.90;;;;;;4971992;28;20228;-83
2020/12/21 08:03:53;;;;;;;10.60;8.70;;;6.00;99.90;;;;;;4974572;28;20361;-83
2020/12/21 08:06:24;;;;;;;12.95;9.18;;;6.10;99.90;;;;;;4974133;28;20233;-83
2020/12/21 08:08:51;;;;;;;14.38;9.15;;;6.30;99.90;;;;;;4974343;28;20201;-82
2020/12/21 08:11:19;;;;;;;10.98;8.73;;;6.30;99.90;;;;;;4975268;28;20284;-83
2020/12/21 08:13:47;;;;;;;12.98;9.70;;;6.30;99.90;;;;;;4975431;28;20279;-82
2020/12/21 08:16:14;;;;;;;11.05;8.85;;;6.40;99.90;;;;;;4976476;28;20779;-83
2020/12/21 08:18:45;;;;;;;13.20;10.20;;;6.50;99.90;;;;;;4976136;28;20490;-84
2020/12/21 08:21:13;;;;;;;9.65;7.78;;;6.50;99.90;;;;;;4975277;28;20535;-83
2020/12/21 08:23:40;;;;;;;10.68;8.43;;;6.50;99.90;;;;;;4976295;28;20251;-85
2020/12/21 08:26:14;;;;;;;10.10;7.28;;;6.50;99.90;;;;;;4993420;28;20559;-85
2020/12/21 08:28:41;;;;;;;8.38;7.32;;;6.60;99.90;;;;;;4992322;28;20201;-83
2020/12/21 08:31:09;;;;;;;7.60;6.32;;;6.80;99.90;;;;;;4980632;28;20755;-82
2020/12/21 08:33:37;;;;;;;9.45;7.78;;;6.90;99.90;;;;;;4976460;28;20296;-85
2020/12/21 08:36:22;;;;;;;7.20;6.45;;;7.10;99.90;;;;;;4974620;28;20228;-90
2020/12/21 08:38:49;;;;;;;8.48;6.72;;;7.20;99.90;;;;;;4982645;28;20280;-81
2020/12/21 08:41:16;;;;;;;7.90;6.30;;;7.10;99.90;;;;;;4990071;28;20664;-82
2020/12/21 08:43:42;;;;;;;7.40;5.10;;;6.90;99.90;;;;;;4978489;28;20295;-81
2020/12/21 08:46:10;;;;;;;7.35;6.65;;;6.80;99.90;;;;;;4976054;28;20647;-82
2020/12/21 08:48:40;;;;;;;7.82;6.35;;;6.70;99.90;;;;;;4973143;28;20205;-83
2020/12/21 08:51:06;;;;;;;8.05;5.90;;;6.70;99.90;;;;;;4972035;28;20212;-82
2020/12/21 08:53:34;;;;;;;9.70;7.25;;;6.70;99.90;;;;;;4975336;28;20205;-82
2020/12/21 08:56:09;;;;;;;8.90;6.50;;;6.80;99.90;;;;;;4975908;28;20283;-83
2020/12/21 08:58:35;;;;;;;8.20;7.40;;;6.80;99.90;;;;;;4975779;28;20208;-84
2020/12/21 09:01:04;;;;;;;8.67;7.53;;;6.80;99.90;;;;;;4975798;28;20262;-84
2020/12/21 09:03:31;;;;;;;8.97;8.03;;;6.80;99.90;;;;;;4975176;28;20515;-83
2020/12/21 09:05:57;;;;;;;14.68;8.20;;;6.80;99.90;;;;;;4973971;28;20567;-84
2020/12/21 09:08:24;;;;;;;10.55;8.35;;;6.80;99.90;;;;;;4984398;28;20196;-84
2020/12/21 09:10:51;;;;;;;8.80;8.00;;;6.80;99.90;;;;;;4995166;28;20678;-84
2020/12/21 09:13:17;;;;;;;8.82;7.80;;;6.80;99.90;;;;;;4994409;28;20212;-83
2020/12/21 09:15:44;;;;;;;10.13;7.83;;;6.80;99.90;;;;;;4978597;28;20824;-84
2020/12/21 09:18:12;;;;;;;9.80;8.10;;;6.80;99.90;;;;;;4975674;28;20546;-84
2020/12/21 09:20:39;;;;;;;10.90;7.80;;;6.80;99.90;;;;;;4973728;28;20573;-83
2020/12/21 09:23:05;;;;;;;7.80;7.03;;;6.90;99.90;;;;;;4978935;28;20874;-83
2020/12/21 09:25:31;;;;;;;11.98;9.30;;;7.00;99.90;;;;;;4978951;28;20556;-85
2020/12/21 09:27:59;;;;;;;10.07;9.07;;;6.80;99.90;;;;;;4979266;28;20284;-86
2020/12/21 09:30:25;;;;;;;8.23;7.43;;;6.90;99.90;;;;;;4976420;28;20213;-85
2020/12/21 09:32:52;;;;;;;13.87;7.67;;;6.90;99.90;;;;;;4981370;28;20482;-85
2020/12/21 09:35:19;;;;;;;7.93;6.90;;;7.00;99.90;;;;;;4977812;28;20562;-86
2020/12/21 09:37:45;;;;;;;10.90;8.47;;;7.00;99.90;;;;;;4978979;28;20448;-84
2020/12/21 09:40:11;;;;;;;10.03;7.80;;;7.10;99.90;;;;;;4981071;28;20892;-85
2020/12/21 09:42:42;;;;;;;10.50;7.87;;;7.20;99.90;;;;;;4994538;28;20956;-84
2020/12/21 09:45:09;;;;;;;10.80;8.27;;;7.20;99.90;;;;;;4994536;28;20452;-84
2020/12/21 09:47:36;;;;;;;9.67;8.17;;;7.20;99.90;;;;;;4996147;28;20451;-83
2020/12/21 09:50:03;;;;;;;10.10;6.90;;;7.40;99.90;;;;;;4993336;28;20898;-82
2020/12/21 09:52:29;;;;;;;10.33;9.30;;;7.50;99.90;;;;;;4992661;28;20555;-85
2020/12/21 09:54:55;;;;;;;10.53;9.40;;;7.50;99.90;;;;;;4994309;28;20487;-84
2020/12/21 09:57:22;;;;;;;11.63;9.00;;;7.50;99.90;;;;;;4991367;28;21457;-86
2020/12/21 09:59:49;;;;;;;9.70;8.80;;;7.60;99.90;;;;;;4981744;28;20490;-85
2020/12/21 10:02:16;;;;;;;9.57;8.10;;;7.60;99.90;;;;;;4993989;28;20958;-84
2020/12/21 10:04:42;;;;;;;7.60;6.47;;;7.60;99.90;;;;;;4982385;28;20492;-84
2020/12/21 10:07:09;;;;;;;7.43;6.73;;;7.70;99.90;;;;;;4977263;28;20908;-83
2020/12/21 10:09:35;;;;;;;8.40;6.97;;;7.90;99.90;;;;;;4979285;28;20999;-82
2020/12/21 10:12:02;;;;;;;10.80;6.90;;;8.40;99.90;;;;;;4984435;28;20463;-83
2020/12/21 10:14:28;;;;;;;13.00;7.20;;;8.40;99.90;;;;;;4977528;28;20494;-82
2020/12/21 10:16:55;;;;;;;9.30;7.53;;;8.30;99.90;;;;;;4993844;28;20527;-82
2020/12/21 10:19:22;;;;;;;9.87;7.53;;;8.30;99.90;;;;;;4994224;28;20938;-83
2020/12/21 10:21:49;;;;;;;10.63;6.60;;;8.20;99.90;;;;;;4992921;28;21100;-83
2020/12/21 10:24:15;;;;;;;8.90;6.27;;;8.20;99.90;;;;;;4975161;28;20537;-83
2020/12/21 10:26:42;;;;;;;6.43;5.77;;;8.30;99.90;;;;;;4973851;28;20494;-83
2020/12/21 10:29:09;;;;;;;8.30;5.70;;;8.30;99.90;;;;;;4974097;28;20532;-83
2020/12/21 10:31:35;;;;;;;6.47;5.87;;;8.30;99.90;;;;;;4974343;28;20510;-83
2020/12/21 10:34:02;;;;;;;6.80;5.77;;;8.30;99.90;;;;;;4973946;28;20463;-82
2020/12/21 10:36:29;;;;;;;9.50;7.40;;;8.20;99.90;;;;;;4980798;28;20578;-83
2020/12/21 10:38:56;;;;;;;11.63;10.23;;;8.20;99.90;;;;;;4974761;28;20488;-82
2020/12/21 10:41:22;;;;;;;9.83;7.97;;;8.30;99.90;;;;;;4974092;28;20531;-83
2020/12/21 10:43:48;;;;;;;9.40;8.03;;;8.10;99.90;;;;;;4974247;28;20461;-83
2020/12/21 10:46:20;;;;;;;9.30;7.80;;;8.20;99.90;;;;;;4974139;28;20452;-81
2020/12/21 10:48:47;;;;;;;10.20;7.97;;;8.30;99.90;;;;;;4976195;28;20445;-82
2020/12/21 10:51:13;;;;;;;10.47;8.10;;;8.30;99.90;;;;;;4973225;28;20488;-82
2020/12/21 10:53:41;;;;;;;10.07;7.70;;;8.20;99.90;;;;;;4972948;28;20471;-82
2020/12/21 10:56:12;;;;;;;16.63;8.47;;;8.10;99.90;;;;;;4974120;28;20952;-82
2020/12/21 10:58:41;;;;;;;11.10;7.67;;;8.00;99.90;;;;;;4971084;28;20480;-83
2020/12/21 11:01:08;;;;;;;8.00;6.63;;;8.10;99.90;;;;;;4971071;28;20503;-83
2020/12/21 11:03:35;;;;;;;8.07;7.10;;;8.20;99.90;;;;;;4973919;28;20551;-83
2020/12/21 11:06:01;;;;;;;8.50;7.70;;;8.20;99.90;;;;;;4972563;28;20967;-83
2020/12/21 11:08:28;;;;;;;6.80;5.30;;;8.30;99.90;;;;;;4973987;28;20527;-82
2020/12/21 11:10:56;;;;;;;7.17;6.43;;;8.40;99.90;;;;;;4972698;28;20943;-82
2020/12/21 11:13:23;;;;;;;7.27;6.00;;;8.40;99.90;;;;;;4973889;28;20551;-83
2020/12/21 11:15:51;;;;;;;7.10;5.67;;;8.40;99.90;;;;;;4973196;28;20498;-83
2020/12/21 11:18:17;;;;;;;6.57;5.90;;;8.50;99.90;;;;;;4973852;28;20541;-85
2020/12/21 11:20:44;;;;;;;6.13;5.53;;;8.60;99.90;;;;;;4972627;28;20535;-81
2020/12/21 11:23:10;;;;;;;5.50;5.07;;;8.60;99.90;;;;;;4973844;28;20452;-82
2020/12/21 11:25:37;;;;;;;4.47;4.07;;;8.60;99.90;;;;;;4973256;28;20471;-82
2020/12/21 11:28:05;;;;;;;15.07;4.70;;;8.70;99.90;;;;;;4973617;28;21008;-82
2020/12/21 11:30:31;;;;;;;6.53;4.53;;;8.70;99.90;;;;;;4973790;28;20944;-82
2020/12/21 11:32:58;;;;;;;5.77;4.80;;;8.80;99.90;;;;;;4973899;28;20684;-82
2020/12/21 11:35:25;;;;;;;5.47;4.37;;;8.90;99.90;;;;;;4964525;28;20978;-82
2020/12/21 11:37:52;;;;;;;4.20;3.67;;;9.00;99.90;;;;;;4976385;28;20939;-81
2020/12/21 11:40:18;;;;;;;4.90;3.20;;;8.80;99.90;;;;;;4976858;28;20456;-81
2020/12/21 11:42:45;;;;;;;4.17;3.43;;;8.80;99.90;;;;;;4977054;28;20448;-82
2020/12/21 11:45:12;;;;;;;3.90;3.53;;;8.70;99.90;;;;;;4975934;28;20499;-82
2020/12/21 11:47:38;;;;;;;11.07;5.00;;;8.60;99.90;;;;;;4977512;28;20999;-83
2020/12/21 11:50:05;;;;;;;7.17;4.57;;;8.70;99.90;;;;;;4976066;28;20483;-82
2020/12/21 11:52:33;;;;;;;5.87;4.17;;;8.50;99.90;;;;;;4977137;28;21086;-82
2020/12/21 11:54:59;;;;;;;8.07;4.20;;;8.50;99.90;;;;;;4977006;28;20496;-82
2020/12/21 11:57:27;;;;;;;11.57;5.37;;;8.40;99.90;;;;;;4976850;28;20495;-82
2020/12/21 11:59:55;;;;;;;7.53;5.07;;;8.40;99.90;;;;;;4976782;28;20463;-82
2020/12/21 12:02:22;;;;;;;7.73;4.70;;;8.30;99.90;;;;;;4976925;28;20456;-82
2020/12/21 12:04:49;;;;;;;4.73;4.33;;;8.40;99.90;;;;;;4975451;28;20532;-81
2020/12/21 12:07:15;;;;;;;3.20;3.00;;;8.50;99.90;;;;;;4995617;28;20497;-81
2020/12/21 12:09:42;;;;;;;3.50;3.30;;;8.50;99.90;;;;;;4996301;28;20856;-81
2020/12/21 12:12:08;;;;;;;5.80;3.80;;;8.70;99.90;;;;;;4994845;28;20530;-81
2020/12/21 12:14:35;;;;;;;4.00;3.10;;;8.80;99.90;;;;;;4995960;28;20889;-83
2020/12/21 12:17:02;;;;;;;3.10;2.90;;;8.90;99.90;;;;;;4995910;28;20537;-84
2020/12/21 12:19:29;;;;;;;3.90;3.50;;;8.90;99.90;;;;;;4994765;28;20455;-83
2020/12/21 12:21:56;;;;;;;4.77;4.00;;;9.10;99.90;;;;;;4995963;28;20545;-83
2020/12/21 12:24:22;;;;;;;5.97;4.50;;;9.10;99.90;;;;;;4995841;28;20974;-81
2020/12/21 12:26:52;;;;;;;3.70;3.23;;;9.10;99.90;;;;;;4995608;28;20509;-81
2020/12/21 12:29:18;;;;;;;5.80;3.67;;;9.20;99.90;;;;;;4995807;28;20466;-84
2020/12/21 12:31:45;;;;;;;5.20;4.27;;;9.20;99.90;;;;;;4995970;28;20951;-83
2020/12/21 12:34:11;;;;;;;5.60;4.27;;;9.20;99.90;;;;;;4995823;28;20543;-83
2020/12/21 12:36:40;;;;;;;6.60;5.30;;;9.10;99.90;;;;;;4993458;28;20509;-81
2020/12/21 12:39:07;;;;;;;8.47;6.23;;;9.00;99.90;;;;;;4995209;28;20455;-83
2020/12/21 12:41:37;;;;;;;9.37;6.77;;;9.00;99.90;;;;;;4995647;28;20868;-83
2020/12/21 12:44:03;;;;;;;5.50;5.00;;;9.00;99.90;;;;;;4995626;28;20456;-82
2020/12/21 12:46:30;;;;;;;7.50;5.60;;;9.00;99.90;;;;;;4995605;28;20542;-82